sensor_id;sensor_type;location;lat;lon;timestamp;P1;durP1;ratioP1;P2;durP2;ratioP2
81901;SDS011;71369;50.796;3.290;2023-08-17T00:01:47;33.60;;;31.40;;
81901;SDS011;71369;50.796;3.290;2023-08-17T00:04:13;34.78;;;32.30;;
81901;SDS011;71369;50.796;3.290;2023-08-17T00:06:39;35.55;;;32.97;;
81901;SDS011;71369;50.796;3.290;2023-08-17T00:09:05;35.80;;;33.28;;
81901;SDS011;71369;50.796;3.290;2023-08-17T00:11:31;34.17;;;31.88;;
81901;SDS011;71369;50.796;3.290;2023-08-17T00:13:58;36.38;;;33.90;;
81901;SDS011;71369;50.796;3.290;2023-08-17T00:16:23;36.15;;;33.63;;
81901;SDS011;71369;50.796;3.290;2023-08-17T00:18:49;32.20;;;29.75;;
81901;SDS011;71369;50.796;3.290;2023-08-17T00:21:15;32.92;;;30.73;;
81901;SDS011;71369;50.796;3.290;2023-08-17T00:23:41;36.88;;;34.28;;
81901;SDS011;71369;50.796;3.290;2023-08-17T00:26:07;32.90;;;30.27;;
81901;SDS011;71369;50.796;3.290;2023-08-17T00:28:33;35.40;;;32.80;;
81901;SDS011;71369;50.796;3.290;2023-08-17T00:31:00;34.72;;;32.35;;
81901;SDS011;71369;50.796;3.290;2023-08-17T00:33:26;32.83;;;30.45;;
81901;SDS011;71369;50.796;3.290;2023-08-17T00:35:52;33.70;;;30.85;;
81901;SDS011;71369;50.796;3.290;2023-08-17T00:38:18;33.60;;;31.20;;
81901;SDS011;71369;50.796;3.290;2023-08-17T00:40:43;37.08;;;34.40;;
81901;SDS011;71369;50.796;3.290;2023-08-17T00:43:09;31.67;;;29.27;;
81901;SDS011;71369;50.796;3.290;2023-08-17T00:45:35;34.47;;;31.85;;
81901;SDS011;71369;50.796;3.290;2023-08-17T00:48:01;35.45;;;32.97;;
81901;SDS011;71369;50.796;3.290;2023-08-17T00:50:27;33.35;;;31.00;;
81901;SDS011;71369;50.796;3.290;2023-08-17T00:52:53;36.58;;;33.95;;
81901;SDS011;71369;50.796;3.290;2023-08-17T00:55:20;34.10;;;31.48;;
81901;SDS011;71369;50.796;3.290;2023-08-17T00:57:47;35.10;;;32.25;;
81901;SDS011;71369;50.796;3.290;2023-08-17T01:00:13;39.05;;;36.15;;
81901;SDS011;71369;50.796;3.290;2023-08-17T01:02:40;40.35;;;37.45;;
81901;SDS011;71369;50.796;3.290;2023-08-17T01:05:07;39.20;;;36.28;;
81901;SDS011;71369;50.796;3.290;2023-08-17T01:07:33;36.78;;;33.88;;
81901;SDS011;71369;50.796;3.290;2023-08-17T01:09:59;38.10;;;35.17;;
81901;SDS011;71369;50.796;3.290;2023-08-17T01:12:30;37.38;;;34.40;;
81901;SDS011;71369;50.796;3.290;2023-08-17T01:22:37;29.15;;;26.17;;
81901;SDS011;71369;50.796;3.290;2023-08-17T01:25:06;34.47;;;31.65;;
81901;SDS011;71369;50.796;3.290;2023-08-17T01:27:37;38.22;;;35.38;;
81901;SDS011;71369;50.796;3.290;2023-08-17T01:30:06;38.80;;;35.97;;
81901;SDS011;71369;50.796;3.290;2023-08-17T01:35:21;39.40;;;36.60;;
81901;SDS011;71369;50.796;3.290;2023-08-17T01:37:58;36.45;;;33.58;;
81901;SDS011;71369;50.796;3.290;2023-08-17T01:40:28;37.83;;;34.88;;
81901;SDS011;71369;50.796;3.290;2023-08-17T01:42:57;35.22;;;32.50;;
81901;SDS011;71369;50.796;3.290;2023-08-17T01:45:24;38.92;;;36.03;;
81901;SDS011;71369;50.796;3.290;2023-08-17T01:47:50;37.10;;;34.35;;
81901;SDS011;71369;50.796;3.290;2023-08-17T01:50:16;42.83;;;39.80;;
81901;SDS011;71369;50.796;3.290;2023-08-17T01:52:42;43.50;;;40.38;;
81901;SDS011;71369;50.796;3.290;2023-08-17T01:55:08;41.58;;;38.42;;
81901;SDS011;71369;50.796;3.290;2023-08-17T01:57:34;36.53;;;33.63;;
81901;SDS011;71369;50.796;3.290;2023-08-17T02:00:01;40.17;;;37.28;;
81901;SDS011;71369;50.796;3.290;2023-08-17T02:02:29;40.83;;;37.92;;
81901;SDS011;71369;50.796;3.290;2023-08-17T02:04:55;38.53;;;35.80;;
81901;SDS011;71369;50.796;3.290;2023-08-17T02:07:21;40.90;;;37.90;;
81901;SDS011;71369;50.796;3.290;2023-08-17T02:09:47;43.58;;;40.45;;
81901;SDS011;71369;50.796;3.290;2023-08-17T02:12:12;43.83;;;40.88;;
81901;SDS011;71369;50.796;3.290;2023-08-17T02:14:38;41.30;;;38.65;;
81901;SDS011;71369;50.796;3.290;2023-08-17T02:17:04;40.80;;;37.85;;
81901;SDS011;71369;50.796;3.290;2023-08-17T02:19:31;41.33;;;38.05;;
81901;SDS011;71369;50.796;3.290;2023-08-17T02:21:58;38.65;;;35.45;;
81901;SDS011;71369;50.796;3.290;2023-08-17T02:24:24;39.42;;;36.45;;
81901;SDS011;71369;50.796;3.290;2023-08-17T02:26:50;41.83;;;38.60;;
81901;SDS011;71369;50.796;3.290;2023-08-17T02:29:16;41.97;;;38.90;;
81901;SDS011;71369;50.796;3.290;2023-08-17T02:31:41;41.63;;;39.03;;
81901;SDS011;71369;50.796;3.290;2023-08-17T02:34:07;40.55;;;37.53;;
81901;SDS011;71369;50.796;3.290;2023-08-17T02:36:34;40.63;;;37.72;;
81901;SDS011;71369;50.796;3.290;2023-08-17T02:39:00;40.53;;;37.80;;
81901;SDS011;71369;50.796;3.290;2023-08-17T02:41:26;41.10;;;38.05;;
81901;SDS011;71369;50.796;3.290;2023-08-17T02:43:51;38.13;;;35.58;;
81901;SDS011;71369;50.796;3.290;2023-08-17T02:46:17;42.33;;;39.50;;
81901;SDS011;71369;50.796;3.290;2023-08-17T02:48:43;42.13;;;39.28;;
81901;SDS011;71369;50.796;3.290;2023-08-17T02:51:08;40.15;;;37.42;;
81901;SDS011;71369;50.796;3.290;2023-08-17T02:53:34;39.85;;;36.88;;
81901;SDS011;71369;50.796;3.290;2023-08-17T02:56:00;41.67;;;38.75;;
81901;SDS011;71369;50.796;3.290;2023-08-17T02:58:26;40.50;;;37.75;;
81901;SDS011;71369;50.796;3.290;2023-08-17T03:00:52;40.60;;;37.90;;
81901;SDS011;71369;50.796;3.290;2023-08-17T03:03:18;44.20;;;41.10;;
81901;SDS011;71369;50.796;3.290;2023-08-17T03:05:44;37.90;;;35.42;;
81901;SDS011;71369;50.796;3.290;2023-08-17T03:08:10;41.42;;;38.58;;
81901;SDS011;71369;50.796;3.290;2023-08-17T03:10:37;38.28;;;35.60;;
81901;SDS011;71369;50.796;3.290;2023-08-17T03:13:03;40.40;;;37.58;;
81901;SDS011;71369;50.796;3.290;2023-08-17T03:15:29;37.42;;;35.00;;
81901;SDS011;71369;50.796;3.290;2023-08-17T03:17:55;36.55;;;34.15;;
81901;SDS011;71369;50.796;3.290;2023-08-17T03:20:21;36.63;;;34.20;;
81901;SDS011;71369;50.796;3.290;2023-08-17T03:22:46;38.70;;;36.28;;
81901;SDS011;71369;50.796;3.290;2023-08-17T03:25:12;38.22;;;35.67;;
81901;SDS011;71369;50.796;3.290;2023-08-17T03:27:38;39.28;;;36.65;;
81901;SDS011;71369;50.796;3.290;2023-08-17T03:30:04;37.60;;;34.97;;
81901;SDS011;71369;50.796;3.290;2023-08-17T03:32:30;36.97;;;34.33;;
81901;SDS011;71369;50.796;3.290;2023-08-17T03:34:56;37.65;;;34.97;;
81901;SDS011;71369;50.796;3.290;2023-08-17T03:37:22;40.33;;;37.58;;
81901;SDS011;71369;50.796;3.290;2023-08-17T03:39:47;37.13;;;34.67;;
81901;SDS011;71369;50.796;3.290;2023-08-17T03:42:13;38.08;;;35.55;;
81901;SDS011;71369;50.796;3.290;2023-08-17T03:44:39;37.65;;;34.75;;
81901;SDS011;71369;50.796;3.290;2023-08-17T03:47:04;40.60;;;37.63;;
81901;SDS011;71369;50.796;3.290;2023-08-17T03:49:30;39.28;;;36.33;;
81901;SDS011;71369;50.796;3.290;2023-08-17T03:51:56;37.20;;;34.50;;
81901;SDS011;71369;50.796;3.290;2023-08-17T03:54:21;34.88;;;32.28;;
81901;SDS011;71369;50.796;3.290;2023-08-17T03:56:47;34.92;;;32.58;;
81901;SDS011;71369;50.796;3.290;2023-08-17T03:59:13;35.17;;;32.63;;
81901;SDS011;71369;50.796;3.290;2023-08-17T04:01:39;37.53;;;34.75;;
81901;SDS011;71369;50.796;3.290;2023-08-17T04:04:05;34.47;;;32.25;;
81901;SDS011;71369;50.796;3.290;2023-08-17T04:06:30;33.33;;;30.70;;
81901;SDS011;71369;50.796;3.290;2023-08-17T04:08:56;33.22;;;30.70;;
81901;SDS011;71369;50.796;3.290;2023-08-17T04:11:22;37.45;;;34.88;;
81901;SDS011;71369;50.796;3.290;2023-08-17T04:13:48;34.90;;;32.53;;
81901;SDS011;71369;50.796;3.290;2023-08-17T04:16:13;36.17;;;33.83;;
81901;SDS011;71369;50.796;3.290;2023-08-17T04:18:39;35.08;;;32.58;;
81901;SDS011;71369;50.796;3.290;2023-08-17T04:21:05;34.70;;;32.10;;
81901;SDS011;71369;50.796;3.290;2023-08-17T04:23:30;36.58;;;33.53;;
81901;SDS011;71369;50.796;3.290;2023-08-17T04:25:56;35.47;;;32.67;;
81901;SDS011;71369;50.796;3.290;2023-08-17T04:28:22;35.75;;;32.95;;
81901;SDS011;71369;50.796;3.290;2023-08-17T04:30:48;36.40;;;34.10;;
81901;SDS011;71369;50.796;3.290;2023-08-17T04:33:13;33.60;;;31.35;;
81901;SDS011;71369;50.796;3.290;2023-08-17T04:35:39;38.17;;;35.13;;
81901;SDS011;71369;50.796;3.290;2023-08-17T04:38:05;37.95;;;34.63;;
81901;SDS011;71369;50.796;3.290;2023-08-17T04:40:30;40.00;;;37.08;;
81901;SDS011;71369;50.796;3.290;2023-08-17T04:42:57;40.45;;;37.45;;
81901;SDS011;71369;50.796;3.290;2023-08-17T04:45:23;43.17;;;39.70;;
81901;SDS011;71369;50.796;3.290;2023-08-17T04:47:49;41.17;;;37.95;;
81901;SDS011;71369;50.796;3.290;2023-08-17T04:50:15;37.50;;;34.78;;
81901;SDS011;71369;50.796;3.290;2023-08-17T04:52:42;41.03;;;38.17;;
81901;SDS011;71369;50.796;3.290;2023-08-17T04:55:08;39.92;;;37.15;;
81901;SDS011;71369;50.796;3.290;2023-08-17T04:57:34;36.42;;;33.67;;
81901;SDS011;71369;50.796;3.290;2023-08-17T05:00:00;39.33;;;36.53;;
81901;SDS011;71369;50.796;3.290;2023-08-17T05:02:26;40.72;;;37.65;;
81901;SDS011;71369;50.796;3.290;2023-08-17T05:04:52;36.10;;;33.47;;
81901;SDS011;71369;50.796;3.290;2023-08-17T05:07:18;39.67;;;37.08;;
81901;SDS011;71369;50.796;3.290;2023-08-17T05:09:44;38.33;;;35.70;;
81901;SDS011;71369;50.796;3.290;2023-08-17T05:12:09;38.25;;;35.42;;
81901;SDS011;71369;50.796;3.290;2023-08-17T05:14:35;42.65;;;39.58;;
81901;SDS011;71369;50.796;3.290;2023-08-17T05:17:01;37.95;;;35.33;;
81901;SDS011;71369;50.796;3.290;2023-08-17T05:19:27;39.55;;;36.40;;
81901;SDS011;71369;50.796;3.290;2023-08-17T05:21:52;39.92;;;37.15;;
81901;SDS011;71369;50.796;3.290;2023-08-17T05:24:18;43.22;;;40.03;;
81901;SDS011;71369;50.796;3.290;2023-08-17T05:26:45;42.63;;;39.70;;
81901;SDS011;71369;50.796;3.290;2023-08-17T05:29:11;40.80;;;38.08;;
81901;SDS011;71369;50.796;3.290;2023-08-17T05:31:37;43.38;;;40.38;;
81901;SDS011;71369;50.796;3.290;2023-08-17T05:34:02;44.03;;;40.70;;
81901;SDS011;71369;50.796;3.290;2023-08-17T05:36:29;44.28;;;41.15;;
81901;SDS011;71369;50.796;3.290;2023-08-17T05:38:54;47.03;;;44.13;;
81901;SDS011;71369;50.796;3.290;2023-08-17T05:41:20;44.65;;;41.65;;
81901;SDS011;71369;50.796;3.290;2023-08-17T05:43:46;50.28;;;46.70;;
81901;SDS011;71369;50.796;3.290;2023-08-17T05:46:13;51.50;;;48.15;;
81901;SDS011;71369;50.796;3.290;2023-08-17T05:48:39;50.70;;;48.00;;
81901;SDS011;71369;50.796;3.290;2023-08-17T05:51:06;51.08;;;48.13;;
81901;SDS011;71369;50.796;3.290;2023-08-17T05:53:32;54.55;;;51.13;;
81901;SDS011;71369;50.796;3.290;2023-08-17T05:55:58;54.63;;;51.13;;
81901;SDS011;71369;50.796;3.290;2023-08-17T05:58:23;55.92;;;52.97;;
81901;SDS011;71369;50.796;3.290;2023-08-17T06:00:49;56.05;;;52.65;;
81901;SDS011;71369;50.796;3.290;2023-08-17T06:03:15;56.30;;;53.08;;
81901;SDS011;71369;50.796;3.290;2023-08-17T06:05:42;54.45;;;51.40;;
81901;SDS011;71369;50.796;3.290;2023-08-17T06:08:08;60.28;;;56.60;;
81901;SDS011;71369;50.796;3.290;2023-08-17T06:10:33;61.55;;;58.08;;
81901;SDS011;71369;50.796;3.290;2023-08-17T06:13:00;67.28;;;63.17;;
81901;SDS011;71369;50.796;3.290;2023-08-17T06:15:25;59.35;;;56.13;;
81901;SDS011;71369;50.796;3.290;2023-08-17T06:17:51;58.80;;;55.38;;
81901;SDS011;71369;50.796;3.290;2023-08-17T06:20:17;71.25;;;67.13;;
81901;SDS011;71369;50.796;3.290;2023-08-17T06:22:43;59.97;;;56.72;;
81901;SDS011;71369;50.796;3.290;2023-08-17T06:25:09;73.28;;;69.25;;
81901;SDS011;71369;50.796;3.290;2023-08-17T06:27:35;68.80;;;64.68;;
81901;SDS011;71369;50.796;3.290;2023-08-17T06:30:04;66.18;;;62.63;;
81901;SDS011;71369;50.796;3.290;2023-08-17T06:32:31;69.25;;;65.22;;
81901;SDS011;71369;50.796;3.290;2023-08-17T06:34:57;68.32;;;64.38;;
81901;SDS011;71369;50.796;3.290;2023-08-17T06:37:23;63.22;;;59.80;;
81901;SDS011;71369;50.796;3.290;2023-08-17T06:39:49;63.95;;;59.90;;
81901;SDS011;71369;50.796;3.290;2023-08-17T06:42:15;63.33;;;59.78;;
81901;SDS011;71369;50.796;3.290;2023-08-17T06:44:40;64.80;;;61.03;;
81901;SDS011;71369;50.796;3.290;2023-08-17T06:47:06;66.82;;;62.83;;
81901;SDS011;71369;50.796;3.290;2023-08-17T06:49:32;67.57;;;63.80;;
81901;SDS011;71369;50.796;3.290;2023-08-17T06:51:57;64.65;;;61.08;;
81901;SDS011;71369;50.796;3.290;2023-08-17T06:54:23;68.38;;;64.72;;
81901;SDS011;71369;50.796;3.290;2023-08-17T06:56:49;59.45;;;56.03;;
81901;SDS011;71369;50.796;3.290;2023-08-17T06:59:15;58.63;;;55.38;;
81901;SDS011;71369;50.796;3.290;2023-08-17T07:01:40;61.75;;;58.05;;
81901;SDS011;71369;50.796;3.290;2023-08-17T07:04:06;58.40;;;54.78;;
81901;SDS011;71369;50.796;3.290;2023-08-17T07:06:32;59.40;;;55.67;;
81901;SDS011;71369;50.796;3.290;2023-08-17T07:09:00;57.40;;;54.20;;
81901;SDS011;71369;50.796;3.290;2023-08-17T07:11:26;55.13;;;52.20;;
81901;SDS011;71369;50.796;3.290;2023-08-17T07:13:51;58.25;;;55.00;;
81901;SDS011;71369;50.796;3.290;2023-08-17T07:16:17;61.10;;;57.80;;
81901;SDS011;71369;50.796;3.290;2023-08-17T07:18:43;59.40;;;56.15;;
81901;SDS011;71369;50.796;3.290;2023-08-17T07:21:09;61.33;;;57.95;;
81901;SDS011;71369;50.796;3.290;2023-08-17T07:23:34;64.38;;;60.75;;
81901;SDS011;71369;50.796;3.290;2023-08-17T07:26:00;62.08;;;58.55;;
81901;SDS011;71369;50.796;3.290;2023-08-17T07:28:26;58.08;;;54.90;;
81901;SDS011;71369;50.796;3.290;2023-08-17T07:30:51;66.55;;;62.75;;
81901;SDS011;71369;50.796;3.290;2023-08-17T07:33:17;62.78;;;59.70;;
81901;SDS011;71369;50.796;3.290;2023-08-17T07:35:43;68.57;;;64.82;;
81901;SDS011;71369;50.796;3.290;2023-08-17T07:38:10;68.60;;;64.97;;
81901;SDS011;71369;50.796;3.290;2023-08-17T07:40:36;83.68;;;79.50;;
81901;SDS011;71369;50.796;3.290;2023-08-17T07:43:02;88.07;;;83.57;;
81901;SDS011;71369;50.796;3.290;2023-08-17T07:45:28;103.72;;;98.53;;
81901;SDS011;71369;50.796;3.290;2023-08-17T07:47:54;95.07;;;90.43;;
81901;SDS011;71369;50.796;3.290;2023-08-17T07:50:19;99.80;;;94.70;;
81901;SDS011;71369;50.796;3.290;2023-08-17T07:52:46;98.00;;;93.18;;
81901;SDS011;71369;50.796;3.290;2023-08-17T07:55:12;114.10;;;108.25;;
81901;SDS011;71369;50.796;3.290;2023-08-17T07:57:38;114.80;;;109.10;;
81901;SDS011;71369;50.796;3.290;2023-08-17T08:00:04;133.57;;;126.88;;
81901;SDS011;71369;50.796;3.290;2023-08-17T08:02:30;123.90;;;117.38;;
81901;SDS011;71369;50.796;3.290;2023-08-17T08:04:56;117.82;;;112.10;;
81901;SDS011;71369;50.796;3.290;2023-08-17T08:07:21;125.18;;;118.60;;
81901;SDS011;71369;50.796;3.290;2023-08-17T08:09:47;129.38;;;122.55;;
81901;SDS011;71369;50.796;3.290;2023-08-17T08:12:13;125.72;;;118.85;;
81901;SDS011;71369;50.796;3.290;2023-08-17T08:14:38;130.23;;;123.82;;
81901;SDS011;71369;50.796;3.290;2023-08-17T08:17:04;136.07;;;128.70;;
81901;SDS011;71369;50.796;3.290;2023-08-17T08:19:30;139.13;;;132.07;;
81901;SDS011;71369;50.796;3.290;2023-08-17T08:21:58;142.45;;;134.98;;
81901;SDS011;71369;50.796;3.290;2023-08-17T08:24:24;133.32;;;126.57;;
81901;SDS011;71369;50.796;3.290;2023-08-17T08:26:50;144.25;;;136.88;;
81901;SDS011;71369;50.796;3.290;2023-08-17T08:29:18;154.90;;;146.93;;
81901;SDS011;71369;50.796;3.290;2023-08-17T08:31:43;148.27;;;140.82;;
81901;SDS011;71369;50.796;3.290;2023-08-17T08:34:09;144.93;;;137.80;;
81901;SDS011;71369;50.796;3.290;2023-08-17T08:36:35;148.75;;;140.90;;
81901;SDS011;71369;50.796;3.290;2023-08-17T08:39:00;133.20;;;126.25;;
81901;SDS011;71369;50.796;3.290;2023-08-17T08:41:26;145.20;;;137.75;;
81901;SDS011;71369;50.796;3.290;2023-08-17T08:43:53;135.45;;;128.45;;
81901;SDS011;71369;50.796;3.290;2023-08-17T08:46:19;142.50;;;134.95;;
81901;SDS011;71369;50.796;3.290;2023-08-17T08:48:47;147.55;;;139.75;;
81901;SDS011;71369;50.796;3.290;2023-08-17T08:51:16;135.60;;;128.40;;
81901;SDS011;71369;50.796;3.290;2023-08-17T08:53:46;123.80;;;117.22;;
81901;SDS011;71369;50.796;3.290;2023-08-17T08:56:18;122.25;;;115.78;;
81901;SDS011;71369;50.796;3.290;2023-08-17T08:58:47;116.82;;;110.80;;
81901;SDS011;71369;50.796;3.290;2023-08-17T09:01:13;116.82;;;110.85;;
81901;SDS011;71369;50.796;3.290;2023-08-17T09:03:41;121.18;;;114.68;;
81901;SDS011;71369;50.796;3.290;2023-08-17T09:06:07;104.78;;;99.25;;
81901;SDS011;71369;50.796;3.290;2023-08-17T09:08:34;104.25;;;98.85;;
81901;SDS011;71369;50.796;3.290;2023-08-17T09:11:00;103.55;;;97.95;;
81901;SDS011;71369;50.796;3.290;2023-08-17T09:13:26;95.40;;;90.45;;
81901;SDS011;71369;50.796;3.290;2023-08-17T09:15:52;96.88;;;91.75;;
81901;SDS011;71369;50.796;3.290;2023-08-17T09:18:18;99.47;;;94.28;;
81901;SDS011;71369;50.796;3.290;2023-08-17T09:20:45;97.53;;;92.43;;
81901;SDS011;71369;50.796;3.290;2023-08-17T09:23:12;83.93;;;79.43;;
81901;SDS011;71369;50.796;3.290;2023-08-17T09:25:42;79.43;;;75.10;;
81901;SDS011;71369;50.796;3.290;2023-08-17T09:28:11;82.70;;;78.28;;
81901;SDS011;71369;50.796;3.290;2023-08-17T09:30:49;73.40;;;69.07;;
81901;SDS011;71369;50.796;3.290;2023-08-17T09:33:19;84.18;;;79.78;;
81901;SDS011;71369;50.796;3.290;2023-08-17T09:35:52;73.80;;;69.57;;
81901;SDS011;71369;50.796;3.290;2023-08-17T09:38:19;74.30;;;70.43;;
81901;SDS011;71369;50.796;3.290;2023-08-17T09:40:47;70.70;;;66.82;;
81901;SDS011;71369;50.796;3.290;2023-08-17T09:43:16;72.93;;;68.93;;
81901;SDS011;71369;50.796;3.290;2023-08-17T09:45:47;74.38;;;70.38;;
81901;SDS011;71369;50.796;3.290;2023-08-17T09:48:18;72.90;;;68.88;;
81901;SDS011;71369;50.796;3.290;2023-08-17T09:50:44;69.63;;;65.78;;
81901;SDS011;71369;50.796;3.290;2023-08-17T09:53:12;76.53;;;71.88;;
81901;SDS011;71369;50.796;3.290;2023-08-17T09:55:42;72.30;;;68.35;;
81901;SDS011;71369;50.796;3.290;2023-08-17T09:58:10;73.82;;;69.53;;
81901;SDS011;71369;50.796;3.290;2023-08-17T10:00:40;76.78;;;71.95;;
81901;SDS011;71369;50.796;3.290;2023-08-17T10:03:13;75.30;;;71.10;;
81901;SDS011;71369;50.796;3.290;2023-08-17T10:05:40;82.78;;;78.40;;
81901;SDS011;71369;50.796;3.290;2023-08-17T10:08:09;93.82;;;88.93;;
81901;SDS011;71369;50.796;3.290;2023-08-17T10:10:38;93.18;;;88.07;;
81901;SDS011;71369;50.796;3.290;2023-08-17T10:15:36;106.57;;;100.78;;
81901;SDS011;71369;50.796;3.290;2023-08-17T10:20:49;101.85;;;96.38;;
81901;SDS011;71369;50.796;3.290;2023-08-17T10:23:27;107.82;;;101.57;;
81901;SDS011;71369;50.796;3.290;2023-08-17T10:25:53;112.10;;;105.82;;
81901;SDS011;71369;50.796;3.290;2023-08-17T10:28:19;116.40;;;110.32;;
81901;SDS011;71369;50.796;3.290;2023-08-17T10:30:47;105.95;;;100.18;;
81901;SDS011;71369;50.796;3.290;2023-08-17T10:33:14;104.20;;;98.65;;
81901;SDS011;71369;50.796;3.290;2023-08-17T10:35:41;104.47;;;98.90;;
81901;SDS011;71369;50.796;3.290;2023-08-17T10:38:07;105.78;;;100.07;;
81901;SDS011;71369;50.796;3.290;2023-08-17T10:40:38;109.80;;;103.75;;
81901;SDS011;71369;50.796;3.290;2023-08-17T10:43:06;112.85;;;106.93;;
81901;SDS011;71369;50.796;3.290;2023-08-17T10:45:32;110.43;;;104.55;;
81901;SDS011;71369;50.796;3.290;2023-08-17T10:50:32;120.75;;;114.30;;
81901;SDS011;71369;50.796;3.290;2023-08-17T10:53:03;111.55;;;105.88;;
81901;SDS011;71369;50.796;3.290;2023-08-17T10:55:37;111.22;;;105.28;;
81901;SDS011;71369;50.796;3.290;2023-08-17T10:58:07;114.22;;;108.15;;
81901;SDS011;71369;50.796;3.290;2023-08-17T11:00:35;101.40;;;95.80;;
81901;SDS011;71369;50.796;3.290;2023-08-17T11:03:03;113.80;;;107.55;;
81901;SDS011;71369;50.796;3.290;2023-08-17T11:08:08;104.03;;;97.85;;
81901;SDS011;71369;50.796;3.290;2023-08-17T11:10:56;102.40;;;96.97;;
81901;SDS011;71369;50.796;3.290;2023-08-17T11:13:39;115.25;;;109.13;;
81901;SDS011;71369;50.796;3.290;2023-08-17T11:16:06;118.32;;;111.93;;
81901;SDS011;71369;50.796;3.290;2023-08-17T11:18:32;121.30;;;114.45;;
81901;SDS011;71369;50.796;3.290;2023-08-17T11:21:06;124.05;;;117.30;;
81901;SDS011;71369;50.796;3.290;2023-08-17T11:23:33;121.20;;;114.75;;
81901;SDS011;71369;50.796;3.290;2023-08-17T11:26:00;130.90;;;124.05;;
81901;SDS011;71369;50.796;3.290;2023-08-17T11:28:26;129.13;;;122.05;;
81901;SDS011;71369;50.796;3.290;2023-08-17T11:31:04;131.55;;;124.18;;
81901;SDS011;71369;50.796;3.290;2023-08-17T11:33:34;137.43;;;129.68;;
81901;SDS011;71369;50.796;3.290;2023-08-17T11:36:01;131.73;;;124.57;;
81901;SDS011;71369;50.796;3.290;2023-08-17T11:38:38;139.52;;;131.90;;
81901;SDS011;71369;50.796;3.290;2023-08-17T11:41:05;145.02;;;137.20;;
81901;SDS011;71369;50.796;3.290;2023-08-17T11:43:34;150.07;;;142.18;;
81901;SDS011;71369;50.796;3.290;2023-08-17T11:46:00;142.20;;;134.63;;
81901;SDS011;71369;50.796;3.290;2023-08-17T11:48:27;143.52;;;135.95;;
81901;SDS011;71369;50.796;3.290;2023-08-17T11:50:53;147.82;;;139.77;;
81901;SDS011;71369;50.796;3.290;2023-08-17T11:53:20;142.57;;;134.65;;
81901;SDS011;71369;50.796;3.290;2023-08-17T11:55:47;135.25;;;128.05;;
81901;SDS011;71369;50.796;3.290;2023-08-17T11:58:15;128.63;;;121.82;;
81901;SDS011;71369;50.796;3.290;2023-08-17T12:00:42;135.43;;;127.60;;
81901;SDS011;71369;50.796;3.290;2023-08-17T12:03:15;120.85;;;114.35;;
81901;SDS011;71369;50.796;3.290;2023-08-17T12:05:41;103.18;;;96.85;;
81901;SDS011;71369;50.796;3.290;2023-08-17T12:08:07;112.68;;;106.63;;
81901;SDS011;71369;50.796;3.290;2023-08-17T12:10:33;109.32;;;103.45;;
81901;SDS011;71369;50.796;3.290;2023-08-17T12:13:00;109.10;;;102.82;;
81901;SDS011;71369;50.796;3.290;2023-08-17T12:15:32;105.80;;;100.05;;
81901;SDS011;71369;50.796;3.290;2023-08-17T12:18:01;100.07;;;93.95;;
81901;SDS011;71369;50.796;3.290;2023-08-17T12:20:28;102.20;;;96.63;;
81901;SDS011;71369;50.796;3.290;2023-08-17T12:22:56;105.32;;;99.80;;
81901;SDS011;71369;50.796;3.290;2023-08-17T12:25:23;102.95;;;97.22;;
81901;SDS011;71369;50.796;3.290;2023-08-17T12:27:50;86.13;;;81.57;;
81901;SDS011;71369;50.796;3.290;2023-08-17T12:32:57;86.97;;;82.30;;
81901;SDS011;71369;50.796;3.290;2023-08-17T12:35:24;93.10;;;88.30;;
81901;SDS011;71369;50.796;3.290;2023-08-17T12:37:51;84.50;;;79.70;;
81901;SDS011;71369;50.796;3.290;2023-08-17T12:40:17;78.35;;;74.28;;
81901;SDS011;71369;50.796;3.290;2023-08-17T12:42:43;82.55;;;78.28;;
81901;SDS011;71369;50.796;3.290;2023-08-17T12:45:08;92.18;;;87.18;;
81901;SDS011;71369;50.796;3.290;2023-08-17T12:47:34;85.65;;;81.15;;
81901;SDS011;71369;50.796;3.290;2023-08-17T12:50:01;88.15;;;83.57;;
81901;SDS011;71369;50.796;3.290;2023-08-17T12:52:28;80.43;;;76.20;;
81901;SDS011;71369;50.796;3.290;2023-08-17T12:54:56;82.53;;;78.43;;
81901;SDS011;71369;50.796;3.290;2023-08-17T12:57:22;75.00;;;71.07;;
81901;SDS011;71369;50.796;3.290;2023-08-17T12:59:47;83.03;;;78.65;;
81901;SDS011;71369;50.796;3.290;2023-08-17T13:02:13;81.03;;;76.82;;
81901;SDS011;71369;50.796;3.290;2023-08-17T13:04:39;74.13;;;70.07;;
81901;SDS011;71369;50.796;3.290;2023-08-17T13:07:06;83.47;;;78.88;;
81901;SDS011;71369;50.796;3.290;2023-08-17T13:09:32;88.60;;;83.65;;
81901;SDS011;71369;50.796;3.290;2023-08-17T13:11:58;86.47;;;81.97;;
81901;SDS011;71369;50.796;3.290;2023-08-17T13:14:24;91.45;;;86.82;;
81901;SDS011;71369;50.796;3.290;2023-08-17T13:16:50;94.47;;;89.50;;
81901;SDS011;71369;50.796;3.290;2023-08-17T13:19:17;93.45;;;88.30;;
81901;SDS011;71369;50.796;3.290;2023-08-17T13:21:43;83.22;;;78.50;;
81901;SDS011;71369;50.796;3.290;2023-08-17T13:24:09;99.18;;;93.70;;
81901;SDS011;71369;50.796;3.290;2023-08-17T13:26:35;100.95;;;95.88;;
81901;SDS011;71369;50.796;3.290;2023-08-17T13:29:01;104.43;;;99.03;;
81901;SDS011;71369;50.796;3.290;2023-08-17T13:31:27;114.30;;;108.47;;
81901;SDS011;71369;50.796;3.290;2023-08-17T13:33:54;120.25;;;113.75;;
81901;SDS011;71369;50.796;3.290;2023-08-17T13:36:20;114.40;;;108.10;;
81901;SDS011;71369;50.796;3.290;2023-08-17T13:38:46;122.45;;;115.88;;
81901;SDS011;71369;50.796;3.290;2023-08-17T13:41:12;130.43;;;123.30;;
81901;SDS011;71369;50.796;3.290;2023-08-17T13:43:38;134.27;;;127.20;;
81901;SDS011;71369;50.796;3.290;2023-08-17T13:46:04;138.63;;;131.38;;
81901;SDS011;71369;50.796;3.290;2023-08-17T13:48:30;153.63;;;145.30;;
81901;SDS011;71369;50.796;3.290;2023-08-17T13:50:56;144.15;;;136.27;;
81901;SDS011;71369;50.796;3.290;2023-08-17T13:53:21;143.35;;;135.27;;
81901;SDS011;71369;50.796;3.290;2023-08-17T13:55:47;148.88;;;141.00;;
81901;SDS011;71369;50.796;3.290;2023-08-17T13:58:13;150.30;;;142.38;;
81901;SDS011;71369;50.796;3.290;2023-08-17T14:00:40;153.55;;;145.43;;
81901;SDS011;71369;50.796;3.290;2023-08-17T14:03:07;147.77;;;139.75;;
81901;SDS011;71369;50.796;3.290;2023-08-17T14:05:32;148.98;;;141.02;;
81901;SDS011;71369;50.796;3.290;2023-08-17T14:07:58;145.82;;;137.70;;
81901;SDS011;71369;50.796;3.290;2023-08-17T14:10:24;144.02;;;136.38;;
81901;SDS011;71369;50.796;3.290;2023-08-17T14:12:50;146.60;;;138.30;;
81901;SDS011;71369;50.796;3.290;2023-08-17T14:15:16;139.40;;;131.73;;
81901;SDS011;71369;50.796;3.290;2023-08-17T14:17:41;131.93;;;124.93;;
81901;SDS011;71369;50.796;3.290;2023-08-17T14:20:07;137.35;;;129.65;;
81901;SDS011;71369;50.796;3.290;2023-08-17T14:22:34;124.13;;;117.25;;
81901;SDS011;71369;50.796;3.290;2023-08-17T14:24:59;127.50;;;120.72;;
81901;SDS011;71369;50.796;3.290;2023-08-17T14:27:25;130.00;;;123.00;;
81901;SDS011;71369;50.796;3.290;2023-08-17T14:29:51;113.55;;;107.75;;
81901;SDS011;71369;50.796;3.290;2023-08-17T14:32:17;121.05;;;114.25;;
81901;SDS011;71369;50.796;3.290;2023-08-17T14:34:42;117.55;;;110.85;;